sensor_id;sensor_type;location;lat;lon;timestamp;pressure;altitude;pressure_sealevel;temperature;humidity
71299;BME280;59083;47.974;21.722;2023-03-03T00:01:23;100656.09;;;1.58;84.72
71299;BME280;59083;47.974;21.722;2023-03-03T00:04:27;100661.94;;;1.62;84.43
71299;BME280;59083;47.974;21.722;2023-03-03T00:07:28;100659.28;;;1.62;83.81
71299;BME280;59083;47.974;21.722;2023-03-03T00:10:30;100660.03;;;1.64;83.71
71299;BME280;59083;47.974;21.722;2023-03-03T00:13:31;100658.84;;;1.57;83.71
71299;BME280;59083;47.974;21.722;2023-03-03T00:16:36;100655.50;;;1.55;83.60
71299;BME280;59083;47.974;21.722;2023-03-03T00:19:38;100655.75;;;1.52;83.12
71299;BME280;59083;47.974;21.722;2023-03-03T00:22:41;100657.91;;;1.47;83.39
71299;BME280;59083;47.974;21.722;2023-03-03T00:25:43;100652.66;;;1.47;83.91
71299;BME280;59083;47.974;21.722;2023-03-03T00:28:50;100646.81;;;1.43;84.08
71299;BME280;59083;47.974;21.722;2023-03-03T00:31:53;100648.75;;;1.30;83.69
71299;BME280;59083;47.974;21.722;2023-03-03T00:35:01;100653.03;;;1.31;83.74
71299;BME280;59083;47.974;21.722;2023-03-03T00:38:18;100650.75;;;1.27;84.04
71299;BME280;59083;47.974;21.722;2023-03-03T00:41:25;100646.25;;;1.17;84.34
71299;BME280;59083;47.974;21.722;2023-03-03T00:44:39;100650.09;;;1.13;84.62
71299;BME280;59083;47.974;21.722;2023-03-03T00:47:42;100649.38;;;1.11;84.84
71299;BME280;59083;47.974;21.722;2023-03-03T00:50:43;100646.97;;;1.08;85.03
71299;BME280;59083;47.974;21.722;2023-03-03T00:53:45;100662.12;;;1.05;84.91
71299;BME280;59083;47.974;21.722;2023-03-03T00:56:46;100647.94;;;0.96;85.02
71299;BME280;59083;47.974;21.722;2023-03-03T00:59:47;100641.50;;;0.89;85.27
71299;BME280;59083;47.974;21.722;2023-03-03T01:02:49;100642.19;;;0.80;85.37
71299;BME280;59083;47.974;21.722;2023-03-03T01:05:51;100643.75;;;0.71;85.66
71299;BME280;59083;47.974;21.722;2023-03-03T01:08:52;100644.00;;;0.68;85.68
71299;BME280;59083;47.974;21.722;2023-03-03T01:11:57;100643.16;;;0.68;85.42
71299;BME280;59083;47.974;21.722;2023-03-03T01:14:58;100649.25;;;0.68;85.55
71299;BME280;59083;47.974;21.722;2023-03-03T01:18:00;100624.81;;;0.57;85.47
71299;BME280;59083;47.974;21.722;2023-03-03T01:21:01;100631.00;;;0.56;85.60
71299;BME280;59083;47.974;21.722;2023-03-03T01:24:03;100627.06;;;0.50;86.32
71299;BME280;59083;47.974;21.722;2023-03-03T01:27:04;100632.16;;;0.52;86.16
71299;BME280;59083;47.974;21.722;2023-03-03T01:30:06;100617.25;;;0.52;86.48
71299;BME280;59083;47.974;21.722;2023-03-03T01:33:07;100614.91;;;0.60;85.81
71299;BME280;59083;47.974;21.722;2023-03-03T01:36:09;100618.72;;;0.56;85.72
71299;BME280;59083;47.974;21.722;2023-03-03T01:39:10;100617.63;;;0.48;85.96
71299;BME280;59083;47.974;21.722;2023-03-03T01:42:12;100607.84;;;0.27;86.12
71299;BME280;59083;47.974;21.722;2023-03-03T01:45:31;100614.75;;;0.28;86.17
71299;BME280;59083;47.974;21.722;2023-03-03T01:48:43;100612.47;;;0.35;86.30
71299;BME280;59083;47.974;21.722;2023-03-03T01:51:48;100618.91;;;0.31;86.26
71299;BME280;59083;47.974;21.722;2023-03-03T01:54:54;100613.28;;;0.24;86.16
71299;BME280;59083;47.974;21.722;2023-03-03T02:01:16;100616.84;;;0.23;85.98
71299;BME280;59083;47.974;21.722;2023-03-03T02:04:19;100614.25;;;0.23;86.31
71299;BME280;59083;47.974;21.722;2023-03-03T02:07:22;100617.31;;;0.17;86.45
71299;BME280;59083;47.974;21.722;2023-03-03T02:10:25;100611.38;;;0.15;86.50
71299;BME280;59083;47.974;21.722;2023-03-03T02:13:27;100619.13;;;0.17;86.52
71299;BME280;59083;47.974;21.722;2023-03-03T02:16:29;100616.00;;;0.12;86.71
71299;BME280;59083;47.974;21.722;2023-03-03T02:22:47;100605.41;;;0.13;86.83
71299;BME280;59083;47.974;21.722;2023-03-03T02:28:59;100615.88;;;0.13;86.69
71299;BME280;59083;47.974;21.722;2023-03-03T02:32:02;100616.13;;;0.10;86.71
71299;BME280;59083;47.974;21.722;2023-03-03T02:35:33;100605.66;;;0.10;86.99
71299;BME280;59083;47.974;21.722;2023-03-03T02:45:08;100595.63;;;0.04;86.99
71299;BME280;59083;47.974;21.722;2023-03-03T02:48:10;100600.59;;;-0.04;86.93
71299;BME280;59083;47.974;21.722;2023-03-03T02:51:12;100599.91;;;-0.06;87.19
71299;BME280;59083;47.974;21.722;2023-03-03T02:54:15;100596.31;;;-0.05;87.37
71299;BME280;59083;47.974;21.722;2023-03-03T02:57:17;100606.03;;;-0.18;88.03
71299;BME280;59083;47.974;21.722;2023-03-03T03:00:18;100588.19;;;-0.13;87.55
71299;BME280;59083;47.974;21.722;2023-03-03T03:03:21;100595.81;;;-0.10;87.88
71299;BME280;59083;47.974;21.722;2023-03-03T03:06:23;100591.31;;;-0.08;88.05
71299;BME280;59083;47.974;21.722;2023-03-03T03:09:24;100592.16;;;-0.08;88.12
71299;BME280;59083;47.974;21.722;2023-03-03T03:12:26;100579.53;;;-0.03;88.32
71299;BME280;59083;47.974;21.722;2023-03-03T03:15:28;100581.66;;;-0.08;88.03
71299;BME280;59083;47.974;21.722;2023-03-03T03:18:29;100575.34;;;-0.05;87.98
71299;BME280;59083;47.974;21.722;2023-03-03T03:21:31;100573.56;;;-0.05;88.03
71299;BME280;59083;47.974;21.722;2023-03-03T03:24:32;100572.03;;;-0.07;88.52
71299;BME280;59083;47.974;21.722;2023-03-03T03:27:35;100564.38;;;-0.10;88.67
71299;BME280;59083;47.974;21.722;2023-03-03T03:30:36;100562.00;;;-0.13;88.43
71299;BME280;59083;47.974;21.722;2023-03-03T03:33:37;100565.31;;;-0.11;88.70
71299;BME280;59083;47.974;21.722;2023-03-03T03:36:39;100561.19;;;-0.14;88.35
71299;BME280;59083;47.974;21.722;2023-03-03T03:39:41;100560.78;;;-0.20;88.22
71299;BME280;59083;47.974;21.722;2023-03-03T03:42:42;100562.69;;;-0.22;88.59
71299;BME280;59083;47.974;21.722;2023-03-03T03:45:44;100564.12;;;-0.18;88.77
71299;BME280;59083;47.974;21.722;2023-03-03T03:48:46;100552.72;;;-0.17;88.97
71299;BME280;59083;47.974;21.722;2023-03-03T03:51:49;100548.44;;;-0.18;88.62
71299;BME280;59083;47.974;21.722;2023-03-03T03:54:51;100546.97;;;-0.22;88.42
71299;BME280;59083;47.974;21.722;2023-03-03T03:57:57;100542.56;;;-0.22;88.75
71299;BME280;59083;47.974;21.722;2023-03-03T04:01:04;100549.59;;;-0.22;88.96
71299;BME280;59083;47.974;21.722;2023-03-03T04:04:06;100544.88;;;-0.17;88.96
71299;BME280;59083;47.974;21.722;2023-03-03T04:07:08;100546.50;;;-0.16;89.04
71299;BME280;59083;47.974;21.722;2023-03-03T04:10:10;100536.75;;;-0.14;88.65
71299;BME280;59083;47.974;21.722;2023-03-03T04:13:12;100543.19;;;-0.18;88.54
71299;BME280;59083;47.974;21.722;2023-03-03T04:16:13;100543.88;;;-0.27;88.61
71299;BME280;59083;47.974;21.722;2023-03-03T04:19:15;100548.41;;;-0.29;88.52
71299;BME280;59083;47.974;21.722;2023-03-03T04:22:16;100549.56;;;-0.33;88.35
71299;BME280;59083;47.974;21.722;2023-03-03T04:25:18;100549.41;;;-0.43;88.44
71299;BME280;59083;47.974;21.722;2023-03-03T04:28:20;100539.84;;;-0.55;88.89
71299;BME280;59083;47.974;21.722;2023-03-03T04:31:23;100545.91;;;-0.55;89.16
71299;BME280;59083;47.974;21.722;2023-03-03T04:34:26;100549.72;;;-0.59;89.04
71299;BME280;59083;47.974;21.722;2023-03-03T04:37:27;100542.19;;;-0.63;89.23
71299;BME280;59083;47.974;21.722;2023-03-03T04:40:29;100536.34;;;-0.67;89.39
71299;BME280;59083;47.974;21.722;2023-03-03T04:43:30;100534.06;;;-0.71;89.45
71299;BME280;59083;47.974;21.722;2023-03-03T04:46:32;100532.28;;;-0.71;89.34
71299;BME280;59083;47.974;21.722;2023-03-03T04:49:33;100529.66;;;-0.71;89.50
71299;BME280;59083;47.974;21.722;2023-03-03T04:52:35;100527.78;;;-0.69;89.46
71299;BME280;59083;47.974;21.722;2023-03-03T04:55:37;100529.66;;;-0.71;89.80
71299;BME280;59083;47.974;21.722;2023-03-03T04:58:39;100534.91;;;-0.71;89.78
71299;BME280;59083;47.974;21.722;2023-03-03T05:01:41;100533.22;;;-0.72;89.79
71299;BME280;59083;47.974;21.722;2023-03-03T05:04:43;100533.97;;;-0.70;89.95
71299;BME280;59083;47.974;21.722;2023-03-03T05:07:44;100539.06;;;-0.68;89.94
71299;BME280;59083;47.974;21.722;2023-03-03T05:10:45;100541.38;;;-0.64;89.95
71299;BME280;59083;47.974;21.722;2023-03-03T05:13:46;100526.50;;;-0.63;89.75
71299;BME280;59083;47.974;21.722;2023-03-03T05:16:48;100534.91;;;-0.71;89.98
71299;BME280;59083;47.974;21.722;2023-03-03T05:19:49;100539.06;;;-0.68;90.04
71299;BME280;59083;47.974;21.722;2023-03-03T05:22:50;100543.34;;;-0.67;89.83
71299;BME280;59083;47.974;21.722;2023-03-03T05:25:51;100539.91;;;-0.68;89.69
71299;BME280;59083;47.974;21.722;2023-03-03T05:28:53;100538.34;;;-0.70;89.34
71299;BME280;59083;47.974;21.722;2023-03-03T05:31:54;100545.13;;;-0.68;89.07
71299;BME280;59083;47.974;21.722;2023-03-03T05:34:55;100543.03;;;-0.63;89.08
71299;BME280;59083;47.974;21.722;2023-03-03T05:37:56;100552.31;;;-0.59;88.75
71299;BME280;59083;47.974;21.722;2023-03-03T05:41:00;100544.53;;;-0.48;88.78
71299;BME280;59083;47.974;21.722;2023-03-03T05:44:02;100548.00;;;-0.36;88.38
71299;BME280;59083;47.974;21.722;2023-03-03T05:47:04;100548.81;;;-0.12;87.65
71299;BME280;59083;47.974;21.722;2023-03-03T05:50:05;100546.09;;;0.12;86.69
71299;BME280;59083;47.974;21.722;2023-03-03T05:53:06;100560.69;;;0.50;85.13
71299;BME280;59083;47.974;21.722;2023-03-03T05:56:07;100554.91;;;1.11;82.99
71299;BME280;59083;47.974;21.722;2023-03-03T05:59:09;100564.38;;;1.35;81.58
71299;BME280;59083;47.974;21.722;2023-03-03T06:02:10;100568.22;;;1.31;81.39
71299;BME280;59083;47.974;21.722;2023-03-03T06:05:11;100566.78;;;1.27;82.11
71299;BME280;59083;47.974;21.722;2023-03-03T06:08:12;100572.03;;;1.27;82.91
71299;BME280;59083;47.974;21.722;2023-03-03T06:11:14;100573.06;;;2.20;80.08
71299;BME280;59083;47.974;21.722;2023-03-03T06:17:46;100574.34;;;3.84;72.60
71299;BME280;59083;47.974;21.722;2023-03-03T06:20:51;100590.72;;;3.78;69.95
71299;BME280;59083;47.974;21.722;2023-03-03T06:23:52;100591.66;;;3.28;71.10
71299;BME280;59083;47.974;21.722;2023-03-03T06:26:55;100592.28;;;3.02;72.89
71299;BME280;59083;47.974;21.722;2023-03-03T06:29:56;100584.44;;;2.81;74.49
71299;BME280;59083;47.974;21.722;2023-03-03T06:32:57;100585.00;;;2.84;74.71
71299;BME280;59083;47.974;21.722;2023-03-03T06:35:59;100562.91;;;2.66;75.40
71299;BME280;59083;47.974;21.722;2023-03-03T06:39:00;100589.47;;;2.94;75.30
71299;BME280;59083;47.974;21.722;2023-03-03T06:42:01;100589.37;;;3.05;76.15
71299;BME280;59083;47.974;21.722;2023-03-03T06:45:02;100588.00;;;3.10;75.39
71299;BME280;59083;47.974;21.722;2023-03-03T06:48:04;100585.91;;;3.04;75.13
71299;BME280;59083;47.974;21.722;2023-03-03T06:51:24;100582.31;;;3.15;75.68
71299;BME280;59083;47.974;21.722;2023-03-03T06:54:28;100586.81;;;3.43;72.62
71299;BME280;59083;47.974;21.722;2023-03-03T06:57:31;100587.94;;;3.79;71.03
71299;BME280;59083;47.974;21.722;2023-03-03T07:00:33;100591.56;;;3.78;69.74
71299;BME280;59083;47.974;21.722;2023-03-03T07:03:34;100605.56;;;3.98;70.53
71299;BME280;59083;47.974;21.722;2023-03-03T07:06:36;100604.88;;;4.15;69.68
71299;BME280;59083;47.974;21.722;2023-03-03T07:09:37;100614.84;;;4.02;68.55
71299;BME280;59083;47.974;21.722;2023-03-03T07:12:38;100617.06;;;4.06;69.52
71299;BME280;59083;47.974;21.722;2023-03-03T07:15:40;100618.47;;;4.20;68.57
71299;BME280;59083;47.974;21.722;2023-03-03T07:18:54;100625.66;;;4.28;68.67
71299;BME280;59083;47.974;21.722;2023-03-03T07:21:56;100617.59;;;4.29;68.96
71299;BME280;59083;47.974;21.722;2023-03-03T07:24:59;100620.63;;;4.53;68.49
71299;BME280;59083;47.974;21.722;2023-03-03T07:28:31;100592.59;;;4.33;68.36
71299;BME280;59083;47.974;21.722;2023-03-03T07:34:43;100624.63;;;4.57;67.23
71299;BME280;59083;47.974;21.722;2023-03-03T07:37:46;100615.88;;;4.67;67.55
71299;BME280;59083;47.974;21.722;2023-03-03T07:40:53;100620.31;;;4.66;67.66
71299;BME280;59083;47.974;21.722;2023-03-03T07:44:21;100612.00;;;4.51;68.45
71299;BME280;59083;47.974;21.722;2023-03-03T07:47:29;100615.03;;;4.56;68.26
71299;BME280;59083;47.974;21.722;2023-03-03T07:50:30;100606.37;;;4.74;68.64
71299;BME280;59083;47.974;21.722;2023-03-03T07:53:34;100608.91;;;4.66;68.40
71299;BME280;59083;47.974;21.722;2023-03-03T07:56:37;100612.47;;;4.37;69.26
71299;BME280;59083;47.974;21.722;2023-03-03T07:59:47;100615.59;;;4.50;68.51
71299;BME280;59083;47.974;21.722;2023-03-03T08:03:02;100615.88;;;4.67;68.06
71299;BME280;59083;47.974;21.722;2023-03-03T08:09:35;100620.31;;;4.56;68.46
71299;BME280;59083;47.974;21.722;2023-03-03T08:12:39;100620.88;;;4.60;68.57
71299;BME280;59083;47.974;21.722;2023-03-03T08:15:42;100624.34;;;4.61;68.31
71299;BME280;59083;47.974;21.722;2023-03-03T08:18:49;100623.34;;;4.62;68.92
71299;BME280;59083;47.974;21.722;2023-03-03T08:21:54;100616.66;;;4.77;68.52
71299;BME280;59083;47.974;21.722;2023-03-03T08:25:00;100623.50;;;4.97;68.44
71299;BME280;59083;47.974;21.722;2023-03-03T08:28:01;100623.31;;;5.08;67.90
71299;BME280;59083;47.974;21.722;2023-03-03T08:31:03;100623.81;;;5.21;67.84
71299;BME280;59083;47.974;21.722;2023-03-03T08:34:04;100619.25;;;5.23;67.33
71299;BME280;59083;47.974;21.722;2023-03-03T08:37:06;100612.47;;;5.38;66.65
71299;BME280;59083;47.974;21.722;2023-03-03T08:40:08;100612.47;;;5.38;66.53
71299;BME280;59083;47.974;21.722;2023-03-03T08:43:10;100607.06;;;5.58;65.56
71299;BME280;59083;47.974;21.722;2023-03-03T08:46:16;100610.16;;;5.71;65.29
71299;BME280;59083;47.974;21.722;2023-03-03T08:49:18;100606.63;;;5.80;65.20
71299;BME280;59083;47.974;21.722;2023-03-03T08:52:19;100612.69;;;5.90;65.07
71299;BME280;59083;47.974;21.722;2023-03-03T08:55:21;100604.19;;;6.04;63.82
71299;BME280;59083;47.974;21.722;2023-03-03T08:58:22;100604.34;;;6.20;64.61
71299;BME280;59083;47.974;21.722;2023-03-03T09:01:24;100600.44;;;6.33;62.66
71299;BME280;59083;47.974;21.722;2023-03-03T09:04:25;100602.41;;;6.48;61.47
71299;BME280;59083;47.974;21.722;2023-03-03T09:07:27;100604.16;;;6.66;60.19
71299;BME280;59083;47.974;21.722;2023-03-03T09:10:29;100607.69;;;6.74;60.42
71299;BME280;59083;47.974;21.722;2023-03-03T09:13:32;100613.41;;;6.95;60.32
71299;BME280;59083;47.974;21.722;2023-03-03T09:16:40;100611.38;;;6.89;59.38
71299;BME280;59083;47.974;21.722;2023-03-03T09:19:42;100613.81;;;7.09;60.25
71299;BME280;59083;47.974;21.722;2023-03-03T09:22:43;100615.50;;;7.18;59.35
71299;BME280;59083;47.974;21.722;2023-03-03T09:25:45;100611.22;;;7.25;59.09
71299;BME280;59083;47.974;21.722;2023-03-03T09:28:47;100609.31;;;7.51;58.99
71299;BME280;59083;47.974;21.722;2023-03-03T09:31:53;100614.94;;;7.40;59.20
71299;BME280;59083;47.974;21.722;2023-03-03T09:34:55;100612.66;;;7.61;59.46
71299;BME280;59083;47.974;21.722;2023-03-03T09:37:56;100617.66;;;7.80;58.84
71299;BME280;59083;47.974;21.722;2023-03-03T09:54:29;100610.56;;;8.38;56.07
71299;BME280;59083;47.974;21.722;2023-03-03T10:08:44;100600.69;;;8.79;52.54
71299;BME280;59083;47.974;21.722;2023-03-03T10:18:34;100582.41;;;9.53;51.71
71299;BME280;59083;47.974;21.722;2023-03-03T10:22:01;100595.69;;;10.07;51.30
71299;BME280;59083;47.974;21.722;2023-03-03T10:25:41;100586.97;;;10.51;49.45
71299;BME280;59083;47.974;21.722;2023-03-03T10:29:01;100578.50;;;10.32;49.74
71299;BME280;59083;47.974;21.722;2023-03-03T10:42:09;100560.78;;;10.25;48.39
71299;BME280;59083;47.974;21.722;2023-03-03T10:48:37;100535.41;;;9.69;48.39
71299;BME280;59083;47.974;21.722;2023-03-03T10:52:03;100551.19;;;9.93;48.22
71299;BME280;59083;47.974;21.722;2023-03-03T11:01:49;100541.97;;;9.81;49.26
71299;BME280;59083;47.974;21.722;2023-03-03T11:08:08;100531.13;;;10.05;48.52
71299;BME280;59083;47.974;21.722;2023-03-03T11:11:50;100522.41;;;10.11;48.69
71299;BME280;59083;47.974;21.722;2023-03-03T11:31:54;100503.56;;;10.50;48.22
71299;BME280;59083;47.974;21.722;2023-03-03T11:35:23;100506.50;;;10.70;48.52
71299;BME280;59083;47.974;21.722;2023-03-03T11:38:35;100497.44;;;11.00;49.48
71299;BME280;59083;47.974;21.722;2023-03-03T11:45:16;100496.31;;;11.09;49.57
71299;BME280;59083;47.974;21.722;2023-03-03T11:55:41;100485.53;;;10.38;50.39
71299;BME280;59083;47.974;21.722;2023-03-03T11:58:49;100479.66;;;10.57;51.03
71299;BME280;59083;47.974;21.722;2023-03-03T12:02:04;100481.88;;;10.68;50.70
71299;BME280;59083;47.974;21.722;2023-03-03T12:05:47;100479.59;;;10.65;50.48
71299;BME280;59083;47.974;21.722;2023-03-03T12:12:20;100472.66;;;10.85;50.33
71299;BME280;59083;47.974;21.722;2023-03-03T12:25:35;100452.09;;;10.50;50.89
71299;BME280;59083;47.974;21.722;2023-03-03T12:41:34;100443.00;;;10.59;51.66
71299;BME280;59083;47.974;21.722;2023-03-03T12:55:07;100456.25;;;10.52;49.73
71299;BME280;59083;47.974;21.722;2023-03-03T12:58:35;100445.75;;;10.51;49.59
71299;BME280;59083;47.974;21.722;2023-03-03T13:01:45;100449.56;;;10.77;49.41
71299;BME280;59083;47.974;21.722;2023-03-03T13:05:01;100452.06;;;10.79;49.17
71299;BME280;59083;47.974;21.722;2023-03-03T13:18:18;100445.19;;;10.70;49.21
71299;BME280;59083;47.974;21.722;2023-03-03T13:24:57;100433.31;;;10.72;49.13
71299;BME280;59083;47.974;21.722;2023-03-03T13:31:26;100429.38;;;10.54;50.30
71299;BME280;59083;47.974;21.722;2023-03-03T13:34:45;100413.69;;;10.59;50.03
71299;BME280;59083;47.974;21.722;2023-03-03T13:37:55;100416.41;;;10.80;50.25
71299;BME280;59083;47.974;21.722;2023-03-03T13:44:13;100405.94;;;11.00;49.71
71299;BME280;59083;47.974;21.722;2023-03-03T13:50:32;100397.91;;;11.14;50.09
71299;BME280;59083;47.974;21.722;2023-03-03T13:53:50;100388.88;;;11.15;50.00
71299;BME280;59083;47.974;21.722;2023-03-03T14:04:18;100392.81;;;10.98;50.06
71299;BME280;59083;47.974;21.722;2023-03-03T14:17:31;100393.13;;;10.53;51.28
71299;BME280;59083;47.974;21.722;2023-03-03T14:21:16;100384.91;;;11.11;49.94
71299;BME280;59083;47.974;21.722;2023-03-03T14:24:21;100384.91;;;11.11;49.94
71299;BME280;59083;47.974;21.722;2023-03-03T14:27:33;100388.06;;;10.43;51.56
71299;BME280;59083;47.974;21.722;2023-03-03T14:30:42;100385.63;;;10.42;52.29
71299;BME280;59083;47.974;21.722;2023-03-03T14:33:55;100386.63;;;10.41;52.12
71299;BME280;59083;47.974;21.722;2023-03-03T14:37:17;100384.97;;;10.40;51.93
71299;BME280;59083;47.974;21.722;2023-03-03T14:40:21;100391.28;;;10.39;52.17
71299;BME280;59083;47.974;21.722;2023-03-03T14:43:36;100387.44;;;10.41;52.66
71299;BME280;59083;47.974;21.722;2023-03-03T14:46:38;100393.31;;;10.51;52.87
71299;BME280;59083;47.974;21.722;2023-03-03T14:49:42;100390.47;;;10.38;52.81
71299;BME280;59083;47.974;21.722;2023-03-03T14:52:43;100394.69;;;10.32;53.22
71299;BME280;59083;47.974;21.722;2023-03-03T14:55:49;100389.09;;;10.27;53.39
71299;BME280;59083;47.974;21.722;2023-03-03T14:58:53;100389.84;;;10.21;53.30
71299;BME280;59083;47.974;21.722;2023-03-03T15:05:21;100385.06;;;10.02;53.78
71299;BME280;59083;47.974;21.722;2023-03-03T15:08:30;100400.38;;;10.00;54.29
71299;BME280;59083;47.974;21.722;2023-03-03T15:11:32;100394.78;;;9.95;54.99
71299;BME280;59083;47.974;21.722;2023-03-03T15:14:42;100394.84;;;9.87;55.31
71299;BME280;59083;47.974;21.722;2023-03-03T15:18:08;100395.97;;;9.78;55.57
71299;BME280;59083;47.974;21.722;2023-03-03T15:21:24;100391.91;;;9.67;55.37
71299;BME280;59083;47.974;21.722;2023-03-03T15:24:39;100398.12;;;9.60;55.90
71299;BME280;59083;47.974;21.722;2023-03-03T15:27:58;100389.59;;;9.49;56.14
71299;BME280;59083;47.974;21.722;2023-03-03T15:35:03;100393.69;;;9.37;56.79
71299;BME280;59083;47.974;21.722;2023-03-03T15:41:43;100399.75;;;9.23;58.20
71299;BME280;59083;47.974;21.722;2023-03-03T15:44:50;100388.56;;;9.13;57.62
71299;BME280;59083;47.974;21.722;2023-03-03T15:51:19;100389.97;;;9.01;57.41
71299;BME280;59083;47.974;21.722;2023-03-03T16:01:26;100400.41;;;8.80;57.66
71299;BME280;59083;47.974;21.722;2023-03-03T16:04:35;100403.09;;;8.71;57.70
71299;BME280;59083;47.974;21.722;2023-03-03T16:17:17;100409.94;;;8.35;59.04
71299;BME280;59083;47.974;21.722;2023-03-03T16:20:35;100413.41;;;8.27;59.11
71299;BME280;59083;47.974;21.722;2023-03-03T16:23:38;100418.94;;;8.18;59.47
71299;BME280;59083;47.974;21.722;2023-03-03T16:30:02;100415.66;;;8.00;59.81
71299;BME280;59083;47.974;21.722;2023-03-03T16:39:51;100432.63;;;7.91;59.93
71299;BME280;59083;47.974;21.722;2023-03-03T16:43:17;100446.72;;;7.83;60.71
71299;BME280;59083;47.974;21.722;2023-03-03T16:46:37;100449.53;;;7.65;61.31
71299;BME280;59083;47.974;21.722;2023-03-03T16:56:35;100446.87;;;7.25;62.79
71299;BME280;59083;47.974;21.722;2023-03-03T16:59:46;100442.91;;;7.13;63.16
71299;BME280;59083;47.974;21.722;2023-03-03T17:06:13;100448.66;;;6.92;63.53
71299;BME280;59083;47.974;21.722;2023-03-03T17:12:46;100455.41;;;6.78;63.34
71299;BME280;59083;47.974;21.722;2023-03-03T17:16:13;100464.66;;;6.74;63.45
71299;BME280;59083;47.974;21.722;2023-03-03T17:26:45;100462.25;;;6.47;64.42
71299;BME280;59083;47.974;21.722;2023-03-03T17:36:46;100477.72;;;6.34;64.76
71299;BME280;59083;47.974;21.722;2023-03-03T17:46:40;100485.72;;;6.16;64.35
71299;BME280;59083;47.974;21.722;2023-03-03T17:53:05;100491.34;;;6.13;64.21
71299;BME280;59083;47.974;21.722;2023-03-03T18:09:24;100495.25;;;5.83;64.29
71299;BME280;59083;47.974;21.722;2023-03-03T18:15:57;100511.31;;;5.64;65.11
71299;BME280;59083;47.974;21.722;2023-03-03T18:19:29;100506.00;;;5.64;64.83
71299;BME280;59083;47.974;21.722;2023-03-03T18:22:46;100501.16;;;5.59;64.96
71299;BME280;59083;47.974;21.722;2023-03-03T18:25:59;100502.59;;;5.54;65.02
71299;BME280;59083;47.974;21.722;2023-03-03T18:29:17;100508.56;;;5.56;64.77
71299;BME280;59083;47.974;21.722;2023-03-03T18:32:20;100511.69;;;5.51;64.79
71299;BME280;59083;47.974;21.722;2023-03-03T18:35:24;100509.50;;;5.47;65.16
71299;BME280;59083;47.974;21.722;2023-03-03T18:38:32;100515.66;;;5.37;65.38
71299;BME280;59083;47.974;21.722;2023-03-03T18:48:18;100512.34;;;5.35;65.33
71299;BME280;59083;47.974;21.722;2023-03-03T18:54:39;100521.28;;;5.34;64.75
71299;BME280;59083;47.974;21.722;2023-03-03T18:58:00;100521.87;;;5.28;64.90
71299;BME280;59083;47.974;21.722;2023-03-03T19:07:24;100533.03;;;5.22;64.67
71299;BME280;59083;47.974;21.722;2023-03-03T19:13:41;100535.87;;;5.11;64.50
71299;BME280;59083;47.974;21.722;2023-03-03T19:16:44;100535.78;;;5.03;64.30
71299;BME280;59083;47.974;21.722;2023-03-03T19:23:12;100553.19;;;4.96;63.68
71299;BME280;59083;47.974;21.722;2023-03-03T19:26:38;100558.38;;;4.88;63.92
71299;BME280;59083;47.974;21.722;2023-03-03T19:39:29;100562.25;;;4.66;64.16
71299;BME280;59083;47.974;21.722;2023-03-03T19:46:01;100567.00;;;4.53;64.42
71299;BME280;59083;47.974;21.722;2023-03-03T20:06:08;100583.09;;;4.60;63.74
71299;BME280;59083;47.974;21.722;2023-03-03T20:12:32;100591.53;;;4.63;63.56
71299;BME280;59083;47.974;21.722;2023-03-03T20:16:22;100597.56;;;4.55;63.32
71299;BME280;59083;47.974;21.722;2023-03-03T20:33:18;100594.25;;;4.34;63.74
71299;BME280;59083;47.974;21.722;2023-03-03T20:36:55;100601.66;;;4.31;63.80
71299;BME280;59083;47.974;21.722;2023-03-03T20:40:15;100604.56;;;4.18;64.19
71299;BME280;59083;47.974;21.722;2023-03-03T20:47:17;100615.97;;;4.09;64.60
71299;BME280;59083;47.974;21.722;2023-03-03T20:50:28;100602.38;;;4.04;64.68
71299;BME280;59083;47.974;21.722;2023-03-03T20:54:11;100605.56;;;3.98;65.13
71299;BME280;59083;47.974;21.722;2023-03-03T21:00:56;100614.56;;;3.95;65.35
71299;BME280;59083;47.974;21.722;2023-03-03T21:04:39;100606.53;;;3.97;65.15
71299;BME280;59083;47.974;21.722;2023-03-03T21:10:56;100601.56;;;3.74;66.01
71299;BME280;59083;47.974;21.722;2023-03-03T21:14:18;100600.84;;;3.72;65.97
71299;BME280;59083;47.974;21.722;2023-03-03T21:17:29;100602.91;;;3.59;66.71
71299;BME280;59083;47.974;21.722;2023-03-03T21:20:34;100604.16;;;3.55;66.66
71299;BME280;59083;47.974;21.722;2023-03-03T21:23:35;100601.22;;;3.49;66.78
71299;BME280;59083;47.974;21.722;2023-03-03T21:29:45;100604.69;;;3.30;67.88
71299;BME280;59083;47.974;21.722;2023-03-03T21:33:01;100599.81;;;3.25;68.15
71299;BME280;59083;47.974;21.722;2023-03-03T21:36:03;100597.16;;;3.16;68.46
71299;BME280;59083;47.974;21.722;2023-03-03T21:39:34;100603.06;;;2.99;69.90
71299;BME280;59083;47.974;21.722;2023-03-03T21:42:40;100600.00;;;2.94;69.56
71299;BME280;59083;47.974;21.722;2023-03-03T21:45:42;100592.75;;;2.86;70.07
71299;BME280;59083;47.974;21.722;2023-03-03T21:48:44;100592.19;;;2.82;69.83
71299;BME280;59083;47.974;21.722;2023-03-03T21:51:45;100591.19;;;2.74;70.29
71299;BME280;59083;47.974;21.722;2023-03-03T21:54:48;100592.38;;;2.60;71.57
71299;BME280;59083;47.974;21.722;2023-03-03T21:57:50;100594.50;;;2.66;71.14
71299;BME280;59083;47.974;21.722;2023-03-03T22:00:51;100594.50;;;2.66;71.11
71299;BME280;59083;47.974;21.722;2023-03-03T22:03:52;100597.63;;;2.60;71.87
71299;BME280;59083;47.974;21.722;2023-03-03T22:06:54;100598.16;;;2.54;71.87
71299;BME280;59083;47.974;21.722;2023-03-03T22:09:55;100591.09;;;2.55;72.25
71299;BME280;59083;47.974;21.722;2023-03-03T22:12:56;100588.72;;;2.52;72.12
71299;BME280;59083;47.974;21.722;2023-03-03T22:15:58;100594.50;;;2.45;72.57
71299;BME280;59083;47.974;21.722;2023-03-03T22:18:59;100589.72;;;2.51;72.89